Impacts TAF Board
For situational awareness. Not to be used for flight planning purposes.
IDs:

KATL - Atlanta/Hartsfield-J, GA, US

Issued at 2140 UTC 19 Jan 2019
Updated at 2329 UTC 19 Jan 2019
Potential Impact None Slight Moderate High
Time2252Z 20/00Z 20/01Z 20/02Z 20/03Z 20/04Z 20/05Z 20/06Z 20/07Z 20/08Z 20/09Z 20/10Z 20/11Z 20/12Z>>
Type OBS PRVL
  [TEMP]  
PRVL
  [TEMP]  
PRVL PRVL PRVL PRVL PRVL PRVL PRVL PRVL PRVL PRVL PRVL
VIS 2 3
  [1]  
3
  [1]  
3 3 3 >6 >6 >6 >6 >6 >6 >6 >6
CIG 28 45
  [15]  
45
  [15]  
45 45 45 18 18 18 18 18 18 18 30
Cover OVC BKN
  [OVC]  
BKN
  [OVC]  
BKN BKN BKN OVC OVC OVC OVC OVC OVC OVC BKN
FltCat IFR MVFR
  [IFR]  
MVFR
  [IFR]  
MVFR MVFR MVFR MVFR MVFR MVFR MVFR MVFR MVFR MVFR MVFR
WX RA BR RA
  [+TSRA]  
RA
  [+TSRA]  
RA RA RA -- -- -- -- -- -- -- --
WDir 150 190
[VRB]
190
[VRB]
190 190 190 280 280 280 280 280 280 280 300
WSpd 7 12
  [15]  
12
  [15]  
12 12 12 15 15 15 15 15 15 15 22
WGst 15 20
  [30]  
20
  [30]  
20 20 20 25 25 25 25 25 25 25 30
Raw TAF
KATL 192140Z 1922/2024 19012G20KT 3SM RA SCT020 BKN045
  TEMPO 1923/2002 VRB15G30KT 1SM +TSRA BKN015CB OVC030
  FM200500 28015G25KT P6SM BKN018 OVC040
  FM201200 30022G30KT P6SM BKN030 BKN060
  FM201700 32020G30KT P6SM SCT040


Raw METAR
KATL 192252Z 15007G15KT 2SM RA BR SCT009 BKN028 OVC060 14/13 A2956 RMK AO2 SFC VIS 5 LTG DSNT SE SLP010 CB DSNT SE P0037 T01440128 $
KATL 192220Z 16012G16KT 2SM RA BR SCT009 BKN018 OVC033 15/13 A2959 RMK AO2 SFC VIS 3 P0018 T01500133 $
KATL 192152Z 17010KT 2SM +RA BR FEW009 BKN034 OVC050 16/14 A2961 RMK AO2 SLP023 P0023 T01560139 $
KATL 192146Z 16009G18KT 2SM +RA BR FEW036 OVC046 16/14 A2960 RMK AO2 P0020 $
KATL 192052Z 16009KT 4SM RA BR FEW055 BKN070 OVC090 16/14 A2963 RMK AO2 SLP032 P0005 60005 T01610139 56027 $
KATL 192034Z 16010KT 6SM -RA FEW025 BKN075 OVC090 17/14 A2965 RMK AO2 P0002 T01670139 $

METAR Board
Radar Display
Forecast Discussion
For situational awareness. Not to be used for flight planning purposes.